createdAt,value
2023-03-13T00:02:07.558Z,56.02
2023-03-13T00:04:37.031Z,56.03
2023-03-13T00:07:07.670Z,55.98
2023-03-13T00:09:36.950Z,55.89
2023-03-13T00:12:07.920Z,56.12
2023-03-13T00:14:38.024Z,56.38
2023-03-13T00:17:08.737Z,56.32
2023-03-13T00:19:37.833Z,56.51
2023-03-13T00:22:08.316Z,56.28
2023-03-13T00:24:37.681Z,56.49
2023-03-13T00:27:08.692Z,56.27
2023-03-13T00:29:38.205Z,56.40
2023-03-13T00:32:08.637Z,56.53
2023-03-13T00:34:38.857Z,56.57
2023-03-13T00:37:09.311Z,56.66
2023-03-13T00:39:40.046Z,56.62
2023-03-13T00:42:12.520Z,56.56
2023-03-13T00:44:44.190Z,56.81
2023-03-13T00:47:15.117Z,56.63
2023-03-13T00:49:47.085Z,56.95
2023-03-13T00:52:18.600Z,56.89
2023-03-13T00:54:49.018Z,57.09
2023-03-13T00:57:19.844Z,57.00
2023-03-13T00:59:51.126Z,57.05
2023-03-13T01:02:22.278Z,57.05
2023-03-13T01:04:54.359Z,57.22
2023-03-13T01:07:27.827Z,57.00
2023-03-13T01:09:59.684Z,57.02
2023-03-13T01:12:33.160Z,57.11
2023-03-13T01:15:02.225Z,57.31
2023-03-13T01:17:34.047Z,57.23
2023-03-13T01:20:03.694Z,57.47
2023-03-13T01:22:36.352Z,57.35
2023-03-13T01:25:08.201Z,57.50
2023-03-13T01:27:37.884Z,57.27
2023-03-13T01:30:11.571Z,57.52
2023-03-13T01:32:42.491Z,57.73
2023-03-13T01:35:15.614Z,57.46
2023-03-13T01:37:44.783Z,57.63
2023-03-13T01:40:18.469Z,57.96
2023-03-13T01:42:58.010Z,57.72
2023-03-13T01:46:05.642Z,57.38
2023-03-13T01:48:49.277Z,57.57
2023-03-13T01:51:45.928Z,57.73
2023-03-13T01:54:19.045Z,57.75
2023-03-13T01:56:54.613Z,57.82
2023-03-13T01:59:32.592Z,57.80
2023-03-13T02:02:05.040Z,57.88
2023-03-13T02:04:42.757Z,57.98
2023-03-13T02:07:20.452Z,57.83
2023-03-13T02:09:55.555Z,58.00
2023-03-13T02:12:39.235Z,58.08
2023-03-13T02:15:22.187Z,58.07
2023-03-13T02:17:53.040Z,58.23
2023-03-13T02:20:48.365Z,58.04
2023-03-13T02:23:28.916Z,58.37
2023-03-13T02:25:59.229Z,58.42
2023-03-13T02:28:40.339Z,58.35
2023-03-13T02:31:13.596Z,58.54
2023-03-13T02:33:45.779Z,58.55
2023-03-13T02:36:18.943Z,58.64
2023-03-13T02:38:55.946Z,58.61
2023-03-13T02:41:28.212Z,58.67
2023-03-13T02:43:59.768Z,58.65
2023-03-13T02:46:30.464Z,58.81
2023-03-13T02:49:01.215Z,59.06
2023-03-13T02:51:39.632Z,58.93
2023-03-13T02:54:17.132Z,59.25
2023-03-13T02:56:49.903Z,59.07
2023-03-13T02:59:22.354Z,59.49
2023-03-13T03:01:55.272Z,59.30
2023-03-13T03:04:27.436Z,59.31
2023-03-13T03:06:58.670Z,59.42
2023-03-13T03:09:29.133Z,59.71
2023-03-13T03:12:03.435Z,59.45
2023-03-13T03:14:34.794Z,59.62
2023-03-13T03:17:06.824Z,59.62
2023-03-13T03:19:37.280Z,60.02
2023-03-13T03:22:11.139Z,59.61
2023-03-13T03:24:42.588Z,59.46
2023-03-13T03:27:14.466Z,59.71
2023-03-13T03:29:48.292Z,60.01
2023-03-13T03:32:19.162Z,60.36
2023-03-13T03:34:52.884Z,59.80
2023-03-13T03:37:22.843Z,60.17
2023-03-13T03:39:54.191Z,60.22
2023-03-13T03:42:27.542Z,60.28
2023-03-13T03:44:57.639Z,60.47
2023-03-13T03:47:29.584Z,60.60
2023-03-13T03:50:00.944Z,60.40
2023-03-13T03:52:31.606Z,60.95
2023-03-13T03:55:04.762Z,60.77
2023-03-13T03:57:35.365Z,60.57
2023-03-13T04:00:08.121Z,60.96
2023-03-13T04:02:43.425Z,60.81
2023-03-13T04:05:13.658Z,61.07
2023-03-13T04:07:44.345Z,61.05
2023-03-13T04:10:15.812Z,60.84
2023-03-13T04:12:48.780Z,60.97
2023-03-13T04:15:19.001Z,61.14
2023-03-13T04:17:50.035Z,61.22
2023-03-13T04:20:23.420Z,61.17
2023-03-13T04:22:53.777Z,61.44
2023-03-13T04:25:24.309Z,61.51
2023-03-13T04:27:55.699Z,61.62
2023-03-13T04:30:31.229Z,61.72
2023-03-13T04:33:10.931Z,61.96
2023-03-13T04:35:50.637Z,61.98
2023-03-13T04:38:41.792Z,62.34
2023-03-13T04:41:34.508Z,62.04
2023-03-13T04:44:24.841Z,62.24
2023-03-13T04:47:24.418Z,62.49
2023-03-13T04:50:14.456Z,62.32
2023-03-13T04:52:51.167Z,62.52
2023-03-13T04:55:40.909Z,62.25
2023-03-13T04:58:29.617Z,62.44
2023-03-13T05:01:25.972Z,62.56
2023-03-13T05:04:17.897Z,62.80
2023-03-13T05:07:04.511Z,62.83
2023-03-13T05:10:04.280Z,62.95
2023-03-13T05:13:00.809Z,63.01
2023-03-13T05:15:36.824Z,63.25
2023-03-13T05:18:26.381Z,63.30
2023-03-13T05:21:21.703Z,63.48
2023-03-13T05:24:03.383Z,63.38
2023-03-13T05:26:43.750Z,63.60
2023-03-13T05:29:27.251Z,63.47
2023-03-13T05:32:32.359Z,63.63
2023-03-13T05:35:16.705Z,63.88
2023-03-13T05:38:00.921Z,63.95
2023-03-13T05:40:53.222Z,63.85
2023-03-13T05:43:59.104Z,63.94
2023-03-13T05:46:50.683Z,63.99
2023-03-13T05:49:31.794Z,64.00
2023-03-13T05:52:16.605Z,64.28
2023-03-13T05:55:07.163Z,64.44
2023-03-13T05:58:52.576Z,64.34
2023-03-13T06:02:00.859Z,64.70
2023-03-13T06:04:37.875Z,64.66
2023-03-13T06:07:09.541Z,64.85
2023-03-13T06:09:41.336Z,64.77
2023-03-13T06:12:12.666Z,64.71
2023-03-13T06:14:43.393Z,65.02
2023-03-13T06:17:31.509Z,64.99
2023-03-13T06:20:03.518Z,65.10
2023-03-13T06:22:36.629Z,65.24
2023-03-13T06:25:07.937Z,64.94
2023-03-13T06:27:39.199Z,65.38
2023-03-13T06:30:11.913Z,64.83
2023-03-13T06:32:43.126Z,65.25
2023-03-13T06:35:13.575Z,65.51
2023-03-13T06:37:43.974Z,65.13
2023-03-13T06:40:16.540Z,65.28
2023-03-13T06:42:45.446Z,65.46
2023-03-13T06:45:15.966Z,65.58
2023-03-13T06:47:45.780Z,65.64
2023-03-13T06:50:15.766Z,65.87
2023-03-13T06:52:48.606Z,65.82
2023-03-13T06:55:18.358Z,65.69
2023-03-13T06:57:54.295Z,65.87
2023-03-13T07:00:26.500Z,66.16
2023-03-13T07:02:57.812Z,66.30
2023-03-13T07:05:26.997Z,66.61
2023-03-13T07:08:00.218Z,66.53
2023-03-13T07:10:31.810Z,66.62
2023-03-13T07:13:01.685Z,66.91
2023-03-13T07:15:31.884Z,66.61
2023-03-13T07:18:03.067Z,67.35
2023-03-13T07:20:37.021Z,67.30
2023-03-13T07:23:07.669Z,67.42
2023-03-13T07:25:38.232Z,67.24
2023-03-13T07:28:07.983Z,67.71
2023-03-13T07:30:38.721Z,67.79
2023-03-13T07:33:10.183Z,67.40
2023-03-13T07:35:41.247Z,68.01
2023-03-13T07:38:11.453Z,67.75
2023-03-13T07:40:48.497Z,68.21
2023-03-13T07:43:20.229Z,68.30
2023-03-13T07:46:03.410Z,68.25
2023-03-13T07:48:41.160Z,68.60
2023-03-13T07:51:33.509Z,68.71
2023-03-13T07:54:10.847Z,68.40
2023-03-13T07:56:42.500Z,68.60
2023-03-13T07:59:12.701Z,68.62
2023-03-13T08:01:42.529Z,68.68
2023-03-13T08:04:28.767Z,68.63
2023-03-13T08:07:00.581Z,68.78
2023-03-13T08:09:33.804Z,68.98
2023-03-13T08:12:05.298Z,69.27
2023-03-13T08:14:35.550Z,69.29
2023-03-13T08:17:05.345Z,69.43
2023-03-13T08:19:36.411Z,69.51
2023-03-13T08:26:32.755Z,69.35
2023-03-13T08:29:05.751Z,70.02
2023-03-13T08:31:55.089Z,69.58
2023-03-13T08:34:25.015Z,69.62
2023-03-13T08:36:58.627Z,70.07
2023-03-13T08:39:30.504Z,69.78
2023-03-13T08:42:03.424Z,70.00
2023-03-13T08:44:35.618Z,70.07
2023-03-13T08:47:09.068Z,70.07
2023-03-13T08:49:40.180Z,70.18
2023-03-13T08:52:12.994Z,70.21
2023-03-13T08:54:43.064Z,70.09
2023-03-13T08:57:18.747Z,70.30
2023-03-13T08:59:48.386Z,70.32
2023-03-13T09:02:22.295Z,70.19
2023-03-13T09:04:54.089Z,70.47
2023-03-13T09:07:24.934Z,70.65
2023-03-13T09:09:55.668Z,70.29
2023-03-13T09:12:30.735Z,70.37
2023-03-13T09:15:01.720Z,70.44
2023-03-13T09:17:30.948Z,70.19
2023-03-13T09:20:05.449Z,70.24
2023-03-13T09:23:28.719Z,70.44
2023-03-13T09:25:58.655Z,70.23
2023-03-13T09:28:31.081Z,70.42
2023-03-13T09:31:16.100Z,70.57
2023-03-13T09:43:54.870Z,70.66
2023-03-13T09:46:34.083Z,70.82
2023-03-13T09:49:37.110Z,70.89
2023-03-13T09:52:20.000Z,70.94
2023-03-13T09:55:25.799Z,71.02
2023-03-13T09:58:04.979Z,70.97
2023-03-13T10:00:41.889Z,71.17
2023-03-13T10:03:43.336Z,71.37
2023-03-13T10:06:23.584Z,71.67
2023-03-13T10:08:53.423Z,71.47
2023-03-13T10:11:48.912Z,71.33
2023-03-13T10:14:39.602Z,71.84
2023-03-13T10:25:08.515Z,72.05
2023-03-13T10:31:57.480Z,72.32
2023-03-13T10:34:45.576Z,72.52
2023-03-13T10:37:29.310Z,72.88
2023-03-13T10:40:23.620Z,72.84
2023-03-13T10:43:00.735Z,72.63
2023-03-13T10:45:36.942Z,72.70
2023-03-13T10:48:20.801Z,72.68
2023-03-13T10:50:54.063Z,72.79
2023-03-13T10:53:27.086Z,73.10
2023-03-13T10:56:04.381Z,73.08
2023-03-13T10:58:47.344Z,73.23
2023-03-13T11:01:34.199Z,73.64
2023-03-13T11:04:38.113Z,73.80
2023-03-13T11:07:17.232Z,73.74
2023-03-13T11:09:59.282Z,74.10
2023-03-13T11:12:30.472Z,74.18
2023-03-13T11:15:02.543Z,74.09
2023-03-13T11:17:39.296Z,74.22
2023-03-13T11:20:24.741Z,74.47
2023-03-13T11:23:11.965Z,74.69
2023-03-13T11:25:55.308Z,74.75
2023-03-13T11:29:03.125Z,74.96
2023-03-13T11:31:34.110Z,74.89
2023-03-13T11:34:08.749Z,75.18
2023-03-13T11:36:59.989Z,74.98
2023-03-13T11:39:55.781Z,75.06
2023-03-13T11:43:03.321Z,75.29
2023-03-13T11:46:00.202Z,75.70
2023-03-13T11:49:17.231Z,75.57
2023-03-13T11:52:22.044Z,75.64
2023-03-13T11:54:53.918Z,75.98
2023-03-13T11:57:35.602Z,76.04
2023-03-13T12:00:08.426Z,76.29
2023-03-13T12:03:09.350Z,76.32
2023-03-13T12:05:50.305Z,76.45
2023-03-13T12:08:26.005Z,76.46
2023-03-13T12:11:12.725Z,76.39
2023-03-13T12:13:48.198Z,76.64
2023-03-13T12:16:26.659Z,76.95
2023-03-13T12:18:58.635Z,77.12
2023-03-13T12:21:37.625Z,77.11
2023-03-13T12:24:42.198Z,77.28
2023-03-13T12:27:50.790Z,77.54
2023-03-13T12:30:33.519Z,77.39
2023-03-13T12:33:13.429Z,77.74
2023-03-13T12:35:47.540Z,77.80
2023-03-13T12:38:40.447Z,77.73
2023-03-13T12:41:28.306Z,77.83
2023-03-13T12:44:08.325Z,78.16
2023-03-13T12:47:05.746Z,78.32
2023-03-13T12:50:07.330Z,78.55
2023-03-13T12:53:11.921Z,79.11
2023-03-13T12:55:57.738Z,79.12
2023-03-13T12:58:39.453Z,79.26
2023-03-13T13:01:17.807Z,79.10
2023-03-13T13:03:49.377Z,79.26
2023-03-13T13:06:21.123Z,79.11
2023-03-13T13:08:53.463Z,79.51
2023-03-13T13:11:35.189Z,79.43
2023-03-13T13:14:27.611Z,79.51
2023-03-13T13:17:24.603Z,79.80
2023-03-13T13:19:55.888Z,80.06
2023-03-13T13:22:37.908Z,79.80
2023-03-13T13:25:14.224Z,80.23
2023-03-13T13:28:22.210Z,80.04
2023-03-13T13:30:56.312Z,79.95
2023-03-13T13:33:48.888Z,80.13
2023-03-13T13:36:21.656Z,80.51
2023-03-13T13:38:52.980Z,80.67
2023-03-13T13:41:27.389Z,80.65
2023-03-13T13:44:25.835Z,80.59
2023-03-13T13:46:59.167Z,80.58
2023-03-13T13:49:37.165Z,81.07
2023-03-13T13:52:32.723Z,81.18
2023-03-13T14:00:58.525Z,81.52
2023-03-13T14:03:43.943Z,81.56
2023-03-13T14:06:20.029Z,81.61
2023-03-13T14:08:51.968Z,81.62
2023-03-13T14:11:25.311Z,81.69
2023-03-13T14:14:20.866Z,82.02
2023-03-13T14:16:58.776Z,82.17
2023-03-13T14:19:38.471Z,82.21
2023-03-13T14:22:14.782Z,82.41
2023-03-13T14:24:57.884Z,82.28
2023-03-13T14:27:28.176Z,82.32
2023-03-13T14:30:07.243Z,82.44
2023-03-13T14:32:36.553Z,82.73
2023-03-13T14:35:10.916Z,82.54
2023-03-13T14:37:48.849Z,82.92
2023-03-13T14:40:30.685Z,82.90
2023-03-13T14:43:02.875Z,82.95
2023-03-13T14:45:37.267Z,83.00
2023-03-13T14:48:16.047Z,82.86
2023-03-13T14:50:47.795Z,82.85
2023-03-13T14:53:29.129Z,83.13
2023-03-13T14:56:17.982Z,83.30
2023-03-13T14:58:50.713Z,83.21
2023-03-13T15:01:30.985Z,83.36
2023-03-13T15:04:02.955Z,83.58
2023-03-13T15:06:31.980Z,83.42
2023-03-13T15:09:23.061Z,83.34
2023-03-13T15:12:02.835Z,83.19
2023-03-13T15:14:53.727Z,83.47
2023-03-13T15:17:28.563Z,83.66
2023-03-13T15:19:59.989Z,83.63
2023-03-13T15:22:55.884Z,83.75
2023-03-13T15:25:25.641Z,83.65
2023-03-13T15:27:54.819Z,83.77
2023-03-13T15:30:27.546Z,84.32
2023-03-13T15:32:57.540Z,84.38
2023-03-13T15:35:32.371Z,84.35
2023-03-13T15:38:04.777Z,84.70
2023-03-13T15:40:34.001Z,84.27
2023-03-13T15:43:04.660Z,84.13
2023-03-13T15:45:34.833Z,84.47
2023-03-13T15:48:16.017Z,84.64
2023-03-13T15:51:04.383Z,84.54
2023-03-13T15:53:38.648Z,84.61
2023-03-13T15:56:17.636Z,84.48
2023-03-13T15:58:48.539Z,84.59
2023-03-13T16:01:19.431Z,84.76
2023-03-13T16:03:49.034Z,84.67
2023-03-13T16:06:28.865Z,84.91
2023-03-13T16:09:02.347Z,84.89
2023-03-13T16:11:33.433Z,85.13
2023-03-13T16:14:08.598Z,84.88
2023-03-13T16:16:41.556Z,84.97
2023-03-13T16:19:12.303Z,85.07
2023-03-13T16:21:48.692Z,85.24
2023-03-13T16:24:19.236Z,85.29
2023-03-13T16:26:48.356Z,85.37
2023-03-13T16:29:20.814Z,85.12
2023-03-13T16:31:51.459Z,85.10
2023-03-13T16:34:23.218Z,85.18
2023-03-13T16:36:53.352Z,85.77
2023-03-13T16:39:23.529Z,85.67
2023-03-13T16:41:52.822Z,85.45
2023-03-13T16:44:21.930Z,85.72
2023-03-13T16:47:04.743Z,85.71
2023-03-13T16:49:35.340Z,85.89
2023-03-13T16:52:05.821Z,85.80
2023-03-13T16:54:34.955Z,86.09
2023-03-13T16:57:04.761Z,85.85
2023-03-13T16:59:37.750Z,85.80
2023-03-13T17:02:15.013Z,85.71
2023-03-13T17:04:45.923Z,85.87
2023-03-13T17:07:25.070Z,86.22
2023-03-13T17:09:55.268Z,86.17
2023-03-13T17:12:25.583Z,86.20
2023-03-13T17:14:56.287Z,86.15
2023-03-13T17:17:26.248Z,86.13
2023-03-13T17:19:57.508Z,86.32
2023-03-13T17:22:28.224Z,86.37
2023-03-13T17:25:01.766Z,86.32
2023-03-13T17:27:33.158Z,86.24
2023-03-13T17:30:26.717Z,86.45
2023-03-13T17:32:59.907Z,86.14
2023-03-13T17:35:29.682Z,86.26
2023-03-13T17:38:01.981Z,86.39
2023-03-13T17:40:38.469Z,86.33
2023-03-13T17:43:07.870Z,86.41
2023-03-13T17:45:37.559Z,86.52
2023-03-13T17:48:13.977Z,86.43
2023-03-13T17:50:45.456Z,86.48
2023-03-13T17:53:20.419Z,86.41
2023-03-13T17:55:53.318Z,86.49
2023-03-13T17:58:28.107Z,86.45
2023-03-13T18:00:58.300Z,86.22
2023-03-13T18:03:30.111Z,86.16
2023-03-13T18:06:02.231Z,86.59
2023-03-13T18:08:35.072Z,86.56
2023-03-13T18:11:05.910Z,86.61
2023-03-13T18:13:37.043Z,86.59
2023-03-13T18:16:48.462Z,86.24
2023-03-13T18:19:24.496Z,86.35
2023-03-13T18:21:56.906Z,86.32
2023-03-13T18:24:29.100Z,86.37
2023-03-13T18:27:00.961Z,86.49
2023-03-13T18:29:33.184Z,86.71
2023-03-13T18:32:08.039Z,86.46
2023-03-13T18:34:39.662Z,86.40
2023-03-13T18:37:26.801Z,86.79
2023-03-13T18:39:58.836Z,86.73
2023-03-13T18:42:30.526Z,86.81
2023-03-13T18:45:04.894Z,86.92
2023-03-13T18:47:38.738Z,86.58
2023-03-13T18:50:32.077Z,86.80
2023-03-13T18:53:02.941Z,86.68
2023-03-13T18:55:35.570Z,86.74
2023-03-13T18:58:17.446Z,86.92
2023-03-13T19:00:49.475Z,86.81
2023-03-13T19:03:21.398Z,86.63
2023-03-13T19:05:54.078Z,86.65
2023-03-13T19:08:27.758Z,86.69
2023-03-13T19:11:08.223Z,86.88
2023-03-13T19:13:39.692Z,87.17
2023-03-13T19:16:29.064Z,86.88
2023-03-13T19:19:01.779Z,87.02
2023-03-13T19:21:35.093Z,87.06
2023-03-13T19:24:09.911Z,87.21
2023-03-13T19:26:44.181Z,86.73
2023-03-13T19:29:35.709Z,87.03
2023-03-13T19:32:14.926Z,87.32
2023-03-13T19:34:46.969Z,87.54
2023-03-13T19:37:19.877Z,87.32
2023-03-13T19:39:56.920Z,86.91
2023-03-13T19:42:29.417Z,87.22
2023-03-13T19:45:00.898Z,87.16
2023-03-13T19:47:36.600Z,87.26
2023-03-13T19:50:13.842Z,87.37
2023-03-13T19:52:48.912Z,87.23
2023-03-13T19:55:21.125Z,87.23
2023-03-13T19:57:53.452Z,87.60
2023-03-13T20:00:29.016Z,87.66
2023-03-13T20:03:00.861Z,87.67
2023-03-13T20:05:32.026Z,87.88
2023-03-13T20:08:10.115Z,87.54
2023-03-13T20:10:45.205Z,87.80
2023-03-13T20:13:22.514Z,87.79
2023-03-13T20:15:54.178Z,87.90
2023-03-13T20:18:28.229Z,88.04
2023-03-13T20:21:03.746Z,87.81
2023-03-13T20:23:36.889Z,87.93
2023-03-13T20:26:15.612Z,87.91
2023-03-13T20:28:55.676Z,87.74
2023-03-13T20:31:37.258Z,87.94
2023-03-13T20:34:12.641Z,88.11
2023-03-13T20:36:51.441Z,88.06
2023-03-13T20:39:26.720Z,87.84
2023-03-13T20:42:02.783Z,88.11
2023-03-13T20:44:37.043Z,87.82
2023-03-13T20:47:13.193Z,88.01
2023-03-13T20:49:45.624Z,88.37
2023-03-13T20:52:21.958Z,87.83
2023-03-13T20:54:56.222Z,87.90
2023-03-13T20:57:32.710Z,87.93
2023-03-13T21:00:08.388Z,87.77
2023-03-13T21:02:44.288Z,88.05
2023-03-13T21:05:18.298Z,88.09
2023-03-13T21:07:52.638Z,87.73
2023-03-13T21:10:28.759Z,88.19
2023-03-13T21:13:00.348Z,88.03
2023-03-13T21:15:34.395Z,87.75
2023-03-13T21:18:05.917Z,87.92
2023-03-13T21:20:36.906Z,88.06
2023-03-13T21:23:12.170Z,88.11
2023-03-13T21:25:43.566Z,88.08
2023-03-13T21:28:16.349Z,88.05
2023-03-13T21:30:50.658Z,87.76
2023-03-13T21:33:21.022Z,87.91
2023-03-13T21:35:54.251Z,87.52
2023-03-13T21:38:27.988Z,88.18
2023-03-13T21:41:00.420Z,87.99
2023-03-13T21:43:31.364Z,87.92
2023-03-13T21:46:01.414Z,87.58
2023-03-13T21:48:33.137Z,87.78
2023-03-13T21:51:05.366Z,87.54
2023-03-13T21:53:38.068Z,88.11
2023-03-13T21:56:15.827Z,88.20
2023-03-13T21:58:47.995Z,88.05
2023-03-13T22:01:18.811Z,88.49
2023-03-13T22:03:53.203Z,88.24
2023-03-13T22:06:24.228Z,88.32
2023-03-13T22:08:53.710Z,88.33
2023-03-13T22:11:23.372Z,88.19
2023-03-13T22:13:55.204Z,88.27
2023-03-13T22:16:30.087Z,87.94
2023-03-13T22:19:03.731Z,87.93
2023-03-13T22:21:33.376Z,88.00
2023-03-13T22:24:03.611Z,88.19
2023-03-13T22:26:34.279Z,88.12
2023-03-13T22:29:07.204Z,88.11
2023-03-13T22:31:37.555Z,88.10
2023-03-13T22:34:08.738Z,88.06
2023-03-13T22:36:40.932Z,88.23
2023-03-13T22:39:12.700Z,88.18
2023-03-13T22:41:44.477Z,88.11
2023-03-13T22:44:15.685Z,88.35
2023-03-13T22:46:45.405Z,88.29
2023-03-13T22:49:17.525Z,88.11
2023-03-13T22:51:48.830Z,88.16
2023-03-13T22:54:20.022Z,88.20
2023-03-13T22:56:50.721Z,88.02
2023-03-13T22:59:20.972Z,88.23
2023-03-13T23:01:52.147Z,88.16
2023-03-13T23:04:22.688Z,88.21
2023-03-13T23:06:55.079Z,88.05
2023-03-13T23:09:31.072Z,88.07
2023-03-13T23:12:02.130Z,88.00
2023-03-13T23:14:32.623Z,87.86
2023-03-13T23:17:02.935Z,88.01
2023-03-13T23:19:35.777Z,87.85
2023-03-13T23:22:06.735Z,88.03
2023-03-13T23:24:37.978Z,87.57
2023-03-13T23:27:07.703Z,87.89
2023-03-13T23:29:37.762Z,87.64
2023-03-13T23:32:08.594Z,87.56
2023-03-13T23:34:39.511Z,87.60
2023-03-13T23:37:10.185Z,87.33
2023-03-13T23:39:39.427Z,87.36
2023-03-13T23:42:10.200Z,87.25
2023-03-13T23:44:42.812Z,87.41
2023-03-13T23:47:14.074Z,87.33
2023-03-13T23:49:44.671Z,87.24
2023-03-13T23:52:14.447Z,87.19
2023-03-13T23:54:45.943Z,87.02
2023-03-13T23:57:17.137Z,87.08
2023-03-13T23:59:49.453Z,86.85
